Login to view Products
 
Tuesday, June 15, 2021 (17:08 UTC) 17
Al Ain International Airport
ICAO: OMAL
IATA: AAN
  • METAR OMAL 151700Z 28009KT CAVOK 36/05 Q0999 NOSIG=
  • TAF OMAL 151100Z 1512/1618 30013KT 6000 NSC PROB30 1512/1515 3000 DU BECMG 1517/1519 VRB02KT BECMG 1522/1600 10005KT BECMG 1606/1608 30011KT=

2
Last Updated:
Wind Dir/Speed:
Temperature:
Rel. Humidity:
Pressure:
Visibility: